Time;durP1;ratioP1;P1;durP2;ratioP2;P2;SDS_P1;SDS_P2;PMS_P1;PMS_P2;Temp;Humidity;BMP_temperature;BMP_pressure;BME280_temperature;BME280_humidity;BME280_pressure;Samples;Min_cycle;Max_cycle;Signal;HPM_P1;HPM_P2
2023/12/07 00:21:49;;;;;;;26.27;17.37;;;0.40;99.90;;;;;;5341096;23;20058;-83
2023/12/07 00:26:57;;;;;;;25.93;15.93;;;0.40;99.90;;;;;;5913581;23;20035;-81
2023/12/07 00:42:29;;;;;;;26.13;16.63;;;0.40;99.90;;;;;;5410049;23;19926;-82
2023/12/07 01:00:51;;;;;;;21.67;14.37;;;0.30;99.90;;;;;;5486773;23;20044;-81
2023/12/07 01:03:40;;;;;;;22.58;15.18;;;0.40;99.90;;;;;;4975902;28;37369;-80
2023/12/07 01:08:44;;;;;;;19.63;14.37;;;0.40;99.90;;;;;;5229952;23;20208;-82
2023/12/07 01:18:59;;;;;;;17.70;12.53;;;0.40;99.90;;;;;;5666649;23;20052;-80
2023/12/07 01:47:27;;;;;;;22.60;13.77;;;0.50;99.90;;;;;;5186619;23;20465;-83
2023/12/07 01:50:00;;;;;;;16.97;11.67;;;0.60;99.90;;;;;;4926727;28;39452;-83
2023/12/07 01:52:29;;;;;;;;;;;0.50;99.90;;;;;;4966937;28;39736;-84
2023/12/07 01:55:08;;;;;;;23.20;14.57;;;0.70;99.90;;;;;;4942922;28;36822;-83
2023/12/07 01:58:18;;;;;;;26.67;16.13;;;0.70;99.90;;;;;;4966859;28;49761;-83
2023/12/07 02:03:21;;;;;;;24.17;16.23;;;0.90;99.90;;;;;;5156084;23;20245;-77
2023/12/07 02:05:51;;;;;;;41.03;22.60;;;1.30;99.90;;;;;;4951529;28;37895;-77
2023/12/07 02:08:17;;;;;;;46.83;26.27;;;1.30;99.90;;;;;;4934665;28;39204;-78
2023/12/07 02:10:43;;;;;;;36.73;22.37;;;1.30;99.90;;;;;;4965005;28;37989;-78
2023/12/07 02:13:12;;;;;;;51.40;28.20;;;1.50;99.90;;;;;;4941891;28;38236;-77
2023/12/07 02:15:38;;;;;;;45.60;26.47;;;1.70;99.90;;;;;;4949507;28;37507;-78
2023/12/07 02:18:18;;;;;;;58.40;34.90;;;1.80;99.90;;;;;;4944009;28;37592;-77
2023/12/07 02:21:09;;;;;;;56.03;32.13;;;1.90;99.90;;;;;;4937345;28;38111;-78
2023/12/07 02:23:37;;;;;;;42.97;27.63;;;1.90;99.90;;;;;;4928037;28;47452;-78
2023/12/07 02:26:06;;;;;;;46.43;29.57;;;2.00;99.90;;;;;;4954815;28;37713;-77
2023/12/07 02:28:32;;;;;;;49.17;31.23;;;2.10;99.90;;;;;;4938756;28;38024;-77
2023/12/07 02:30:58;;;;;;;52.60;29.90;;;2.10;99.90;;;;;;4956438;28;39951;-77
2023/12/07 02:33:25;;;;;;;45.97;26.87;;;2.20;99.90;;;;;;4950328;28;38111;-77
2023/12/07 02:35:51;;;;;;;49.37;28.30;;;2.20;99.90;;;;;;4936194;28;37683;-78
2023/12/07 02:38:18;;;;;;;41.80;26.77;;;2.10;99.90;;;;;;4939801;28;40240;-78
2023/12/07 02:40:48;;;;;;;48.80;29.13;;;2.20;99.90;;;;;;4956301;28;38997;-77
2023/12/07 02:43:15;;;;;;;58.00;30.33;;;2.10;99.90;;;;;;4942089;28;37870;-78
2023/12/07 02:45:42;;;;;;;55.27;30.87;;;2.10;99.90;;;;;;4953738;28;38425;-78
2023/12/07 02:48:08;;;;;;;66.67;37.10;;;2.10;99.90;;;;;;4931351;28;38260;-78
2023/12/07 02:50:34;;;;;;;43.53;26.67;;;2.10;99.90;;;;;;4929125;28;38857;-78
2023/12/07 02:53:00;;;;;;;37.73;27.20;;;2.10;99.90;;;;;;4931229;28;37646;-77
2023/12/07 02:55:27;;;;;;;42.80;27.73;;;2.10;99.90;;;;;;4953438;28;47417;-78
2023/12/07 02:57:53;;;;;;;44.77;30.00;;;2.00;99.90;;;;;;4943357;28;38624;-77
2023/12/07 03:00:21;;;;;;;58.97;33.27;;;2.00;99.90;;;;;;4933388;28;39536;-78
2023/12/07 03:02:47;;;;;;;57.53;32.13;;;2.10;99.90;;;;;;4928741;28;47816;-78
2023/12/07 03:05:14;;;;;;;58.73;34.43;;;2.10;99.90;;;;;;4949405;28;38083;-77
2023/12/07 03:07:40;;;;;;;87.47;43.23;;;2.10;99.90;;;;;;4945573;28;40065;-78
2023/12/07 03:10:06;;;;;;;66.07;36.17;;;2.00;99.90;;;;;;4952900;28;39033;-78
2023/12/07 03:12:33;;;;;;;101.90;38.83;;;2.00;99.90;;;;;;4953018;28;38125;-78
2023/12/07 03:14:59;;;;;;;86.67;36.00;;;1.90;99.90;;;;;;4946694;28;37976;-78
2023/12/07 03:17:25;;;;;;;137.63;43.70;;;1.90;99.90;;;;;;4951200;28;39037;-78
2023/12/07 03:19:51;;;;;;;74.97;35.30;;;1.80;99.90;;;;;;4950479;28;39411;-78
2023/12/07 03:22:17;;;;;;;90.60;36.60;;;1.70;99.90;;;;;;4951894;28;38977;-78
2023/12/07 03:24:51;;;;;;;120.70;37.73;;;1.70;99.90;;;;;;4934272;28;36609;-78
2023/12/07 03:27:20;;;;;;;65.90;32.33;;;1.60;99.90;;;;;;4931888;28;37704;-78
2023/12/07 03:29:46;;;;;;;84.27;34.07;;;1.60;99.90;;;;;;4931565;28;39200;-78
2023/12/07 03:32:13;;;;;;;71.00;34.73;;;1.50;99.90;;;;;;4959765;28;39952;-79
2023/12/07 03:34:39;;;;;;;65.13;33.20;;;1.50;99.90;;;;;;4960331;28;38843;-79
2023/12/07 03:37:05;;;;;;;91.30;37.07;;;1.50;99.90;;;;;;4936976;28;37658;-80
2023/12/07 03:39:32;;;;;;;124.83;34.60;;;1.40;99.90;;;;;;4936928;28;37968;-79
2023/12/07 03:41:58;;;;;;;177.90;41.57;;;1.30;99.90;;;;;;4940051;28;37910;-79
2023/12/07 03:44:26;;;;;;;125.47;34.00;;;1.20;99.90;;;;;;4940277;28;36270;-79
2023/12/07 03:46:53;;;;;;;131.80;35.33;;;1.20;99.90;;;;;;4950796;28;39329;-78
2023/12/07 03:49:19;;;;;;;154.90;37.70;;;1.20;99.90;;;;;;4944378;28;39546;-78
2023/12/07 03:51:45;;;;;;;100.87;30.83;;;1.20;99.90;;;;;;4935696;28;40030;-78
2023/12/07 03:54:12;;;;;;;175.47;33.93;;;1.10;99.90;;;;;;4936008;28;36376;-78
2023/12/07 03:56:40;;;;;;;109.40;32.63;;;1.10;99.90;;;;;;4940863;28;39170;-78
2023/12/07 03:59:06;;;;;;;103.87;30.43;;;1.10;99.90;;;;;;4937810;28;37751;-78
2023/12/07 04:01:33;;;;;;;59.87;28.73;;;1.10;99.90;;;;;;4940891;28;38839;-78
2023/12/07 04:04:00;;;;;;;98.43;31.57;;;1.20;99.90;;;;;;4928773;28;36655;-77
2023/12/07 04:06:27;;;;;;;88.13;28.57;;;1.10;99.90;;;;;;4965232;28;39514;-78
2023/12/07 04:08:53;;;;;;;115.57;28.53;;;1.20;99.90;;;;;;4961786;28;38378;-78
2023/12/07 04:11:19;;;;;;;88.67;24.63;;;1.20;99.90;;;;;;4955165;28;39652;-78
2023/12/07 04:13:46;;;;;;;122.77;27.13;;;1.10;99.90;;;;;;4962653;28;36404;-80
2023/12/07 04:16:12;;;;;;;131.53;27.63;;;1.10;99.90;;;;;;4932922;28;37676;-81
2023/12/07 04:18:39;;;;;;;160.00;28.43;;;1.10;99.90;;;;;;4956475;28;38880;-80
2023/12/07 04:21:05;;;;;;;83.57;23.43;;;1.10;99.90;;;;;;4931589;28;41547;-80
2023/12/07 04:23:31;;;;;;;82.03;24.70;;;1.00;99.90;;;;;;4937320;28;37493;-80
2023/12/07 04:25:58;;;;;;;80.00;22.00;;;1.10;99.90;;;;;;4926925;28;37768;-80
2023/12/07 04:28:24;;;;;;;102.17;23.47;;;1.10;99.90;;;;;;4929273;28;37715;-81
2023/12/07 04:30:50;;;;;;;159.17;23.83;;;1.00;99.90;;;;;;4930345;28;38190;-80
2023/12/07 04:33:16;;;;;;;124.87;26.97;;;1.10;99.90;;;;;;4930244;28;36267;-81
2023/12/07 04:35:42;;;;;;;162.57;29.30;;;1.10;99.90;;;;;;4927128;28;39530;-80
2023/12/07 04:38:08;;;;;;;120.00;28.47;;;1.10;99.90;;;;;;4944874;28;38511;-80
2023/12/07 04:40:34;;;;;;;184.63;37.17;;;1.10;99.90;;;;;;4933050;28;37910;-80
2023/12/07 04:43:00;;;;;;;166.37;32.20;;;1.10;99.90;;;;;;4950586;28;38518;-80
2023/12/07 04:45:26;;;;;;;148.53;33.90;;;1.10;99.90;;;;;;4951973;28;47550;-80
2023/12/07 04:47:52;;;;;;;130.87;32.60;;;1.10;99.90;;;;;;4939467;28;37014;-80
2023/12/07 04:50:19;;;;;;;94.07;31.07;;;1.00;99.90;;;;;;4947828;28;39192;-80
2023/12/07 04:52:45;;;;;;;141.83;32.67;;;1.00;99.90;;;;;;4927538;28;37015;-80
2023/12/07 04:55:11;;;;;;;202.43;43.80;;;1.00;99.90;;;;;;4937933;28;39416;-80
2023/12/07 04:57:38;;;;;;;141.53;40.93;;;1.00;99.90;;;;;;4940370;28;39597;-80
2023/12/07 05:00:09;;;;;;;121.87;33.40;;;1.00;99.90;;;;;;4928837;28;37517;-78
2023/12/07 05:02:37;;;;;;;89.57;30.80;;;1.00;99.90;;;;;;4940091;28;36501;-80
2023/12/07 05:05:05;;;;;;;108.20;35.30;;;1.00;99.90;;;;;;4949013;28;38605;-80
2023/12/07 05:07:31;;;;;;;100.67;32.97;;;1.00;99.90;;;;;;4960049;28;47053;-80
2023/12/07 05:09:57;;;;;;;113.07;32.90;;;1.00;99.90;;;;;;4931416;28;38630;-80
2023/12/07 05:12:23;;;;;;;100.83;31.33;;;1.00;99.90;;;;;;4943184;28;37029;-81
2023/12/07 05:14:50;;;;;;;129.07;31.30;;;1.00;99.90;;;;;;4959424;28;37847;-80
2023/12/07 05:17:16;;;;;;;134.83;34.90;;;1.00;99.90;;;;;;4950242;28;39293;-81
2023/12/07 05:19:44;;;;;;;76.73;25.93;;;1.10;99.90;;;;;;4936515;28;37285;-79
2023/12/07 05:22:10;;;;;;;126.60;29.57;;;1.20;99.90;;;;;;4948799;28;37927;-80
2023/12/07 05:24:37;;;;;;;104.07;27.77;;;1.20;99.90;;;;;;4935092;28;40216;-79
2023/12/07 05:27:03;;;;;;;97.07;27.47;;;1.20;99.90;;;;;;4942877;28;39255;-80
2023/12/07 05:29:29;;;;;;;158.50;31.93;;;1.20;99.90;;;;;;4928956;28;37810;-80
2023/12/07 05:31:55;;;;;;;144.73;32.33;;;1.20;99.90;;;;;;4946350;28;37449;-80
2023/12/07 05:34:22;;;;;;;94.53;26.77;;;1.30;99.90;;;;;;4953638;28;38519;-80
2023/12/07 05:36:48;;;;;;;207.10;34.50;;;1.30;99.90;;;;;;4933414;28;37948;-80
2023/12/07 05:39:14;;;;;;;101.83;25.60;;;1.30;99.90;;;;;;4950582;28;39960;-80
2023/12/07 05:41:40;;;;;;;79.10;26.00;;;1.30;99.90;;;;;;4946664;28;38308;-81
2023/12/07 05:44:09;;;;;;;149.93;31.00;;;1.30;99.90;;;;;;4930775;28;40531;-81
2023/12/07 05:46:36;;;;;;;108.40;27.83;;;1.40;99.90;;;;;;4948221;28;39732;-80
2023/12/07 05:49:03;;;;;;;180.37;31.47;;;1.30;99.90;;;;;;4929270;28;41593;-78
2023/12/07 05:51:29;;;;;;;92.37;26.07;;;1.40;99.90;;;;;;4952425;28;37559;-80
2023/12/07 05:53:55;;;;;;;162.80;30.90;;;1.40;99.90;;;;;;4951802;28;39796;-79
2023/12/07 05:56:22;;;;;;;108.73;25.57;;;1.40;99.90;;;;;;4930643;28;37719;-78
2023/12/07 05:58:51;;;;;;;63.87;24.50;;;1.40;99.90;;;;;;4931288;28;38419;-79
2023/12/07 06:01:18;;;;;;;56.33;22.80;;;1.40;99.90;;;;;;4937290;28;38411;-80
2023/12/07 06:03:45;;;;;;;113.87;25.97;;;1.40;99.90;;;;;;4942625;28;39996;-80
2023/12/07 06:06:12;;;;;;;142.00;24.93;;;1.30;99.90;;;;;;4925674;28;20059;-80
2023/12/07 06:08:39;;;;;;;96.23;25.07;;;1.20;99.90;;;;;;4943714;28;38569;-80
2023/12/07 06:11:05;;;;;;;84.50;24.23;;;1.20;99.90;;;;;;4927355;28;41020;-79
2023/12/07 06:13:31;;;;;;;89.47;24.13;;;1.30;99.90;;;;;;4934324;28;38898;-78
2023/12/07 06:15:57;;;;;;;94.73;25.13;;;1.30;99.90;;;;;;4934353;28;39176;-81
2023/12/07 06:18:24;;;;;;;98.43;26.17;;;1.30;99.90;;;;;;4927895;28;37336;-81
2023/12/07 06:20:51;;;;;;;127.90;24.40;;;1.40;99.90;;;;;;4945366;28;37104;-80
2023/12/07 06:23:17;;;;;;;226.83;31.33;;;1.40;99.90;;;;;;4932162;28;37572;-80
2023/12/07 06:25:43;;;;;;;145.13;28.63;;;1.40;99.90;;;;;;4943948;28;38562;-80
2023/12/07 06:28:09;;;;;;;130.23;29.73;;;1.40;99.90;;;;;;4936291;28;38065;-79
2023/12/07 06:30:35;;;;;;;146.90;27.23;;;1.50;99.90;;;;;;4932564;28;36240;-81
2023/12/07 06:33:01;;;;;;;96.63;27.03;;;1.50;99.90;;;;;;4946812;28;40062;-81
2023/12/07 06:35:28;;;;;;;151.77;30.87;;;1.50;99.90;;;;;;4946455;28;38386;-81
2023/12/07 06:37:54;;;;;;;90.47;26.53;;;1.60;99.90;;;;;;4934492;28;37806;-79
2023/12/07 06:40:23;;;;;;;130.10;29.97;;;1.60;99.90;;;;;;4948894;28;38205;-79
2023/12/07 06:42:49;;;;;;;132.00;30.60;;;1.60;99.90;;;;;;4952092;28;38495;-80
2023/12/07 06:45:15;;;;;;;160.27;32.90;;;1.60;99.90;;;;;;4933592;28;37952;-80
2023/12/07 06:47:44;;;;;;;159.33;32.40;;;1.70;99.90;;;;;;4941046;28;38234;-80
2023/12/07 06:50:10;;;;;;;89.20;29.53;;;1.70;99.90;;;;;;4933930;28;36236;-80
2023/12/07 06:52:37;;;;;;;103.23;26.90;;;1.70;99.90;;;;;;4931422;28;37863;-80
2023/12/07 06:55:04;;;;;;;116.80;28.67;;;1.70;99.90;;;;;;4942541;28;38321;-79
2023/12/07 06:57:30;;;;;;;156.23;31.50;;;1.70;99.90;;;;;;4950304;28;38752;-80
2023/12/07 06:59:56;;;;;;;129.17;30.17;;;1.70;99.90;;;;;;4955604;28;37584;-80
2023/12/07 07:02:23;;;;;;;114.60;29.63;;;1.80;99.90;;;;;;4945318;28;37690;-79
2023/12/07 07:04:49;;;;;;;125.23;29.07;;;1.80;99.90;;;;;;4953329;28;39101;-80
2023/12/07 07:07:16;;;;;;;139.70;32.07;;;1.80;99.90;;;;;;4954884;28;38773;-79
2023/12/07 07:09:42;;;;;;;87.03;29.40;;;1.80;99.90;;;;;;4942329;28;38102;-80
2023/12/07 07:12:08;;;;;;;135.30;30.07;;;1.80;99.90;;;;;;4950640;28;38686;-79
2023/12/07 07:14:35;;;;;;;171.20;31.67;;;1.80;99.90;;;;;;4956193;28;38499;-80
2023/12/07 07:17:01;;;;;;;120.70;28.20;;;1.80;99.90;;;;;;4934931;28;38950;-80
2023/12/07 07:19:27;;;;;;;163.30;30.57;;;1.70;99.90;;;;;;4969648;28;46732;-79
2023/12/07 07:21:53;;;;;;;151.90;30.67;;;1.70;99.90;;;;;;4961563;28;38437;-81
2023/12/07 07:24:19;;;;;;;136.43;28.33;;;1.70;99.90;;;;;;4941901;28;38701;-82
2023/12/07 07:26:46;;;;;;;219.70;33.97;;;1.80;99.90;;;;;;4938051;28;36922;-82
2023/12/07 07:29:13;;;;;;;83.47;26.73;;;1.80;99.90;;;;;;4945392;28;38176;-81
2023/12/07 07:31:39;;;;;;;172.50;32.57;;;1.80;99.90;;;;;;4943470;28;38685;-79
2023/12/07 07:34:07;;;;;;;114.73;28.10;;;1.80;99.90;;;;;;4959493;28;39229;-80
2023/12/07 07:36:34;;;;;;;175.20;32.37;;;1.80;99.90;;;;;;4935755;28;38878;-80
2023/12/07 07:39:00;;;;;;;146.63;29.67;;;1.80;99.90;;;;;;4949787;28;37242;-81
2023/12/07 07:41:26;;;;;;;120.13;28.67;;;1.80;99.90;;;;;;4927514;28;37663;-79
2023/12/07 07:43:52;;;;;;;110.80;28.43;;;1.80;99.90;;;;;;4923210;28;37737;-82
2023/12/07 07:46:19;;;;;;;113.23;30.23;;;1.80;99.90;;;;;;4926641;28;37641;-81
2023/12/07 07:48:45;;;;;;;161.60;31.10;;;1.80;99.90;;;;;;4934180;28;36578;-81
2023/12/07 07:51:11;;;;;;;143.73;31.77;;;1.90;99.90;;;;;;4950549;28;39827;-81
2023/12/07 07:53:37;;;;;;;141.70;30.33;;;1.90;99.90;;;;;;4946949;28;42607;-81
2023/12/07 07:56:04;;;;;;;136.20;32.60;;;1.90;99.90;;;;;;4936649;28;37662;-79
2023/12/07 07:58:30;;;;;;;122.83;30.23;;;1.90;99.90;;;;;;4934127;28;37206;-81
2023/12/07 08:00:56;;;;;;;126.43;32.30;;;1.90;99.90;;;;;;4946700;28;40081;-81
2023/12/07 08:03:23;;;;;;;156.73;33.00;;;2.00;99.90;;;;;;4927065;28;37685;-81
2023/12/07 08:05:49;;;;;;;148.90;34.43;;;2.00;99.90;;;;;;4933238;28;36545;-81
2023/12/07 08:08:16;;;;;;;104.20;29.90;;;2.00;99.90;;;;;;4944176;28;39072;-81
2023/12/07 08:10:42;;;;;;;196.60;35.73;;;2.10;99.90;;;;;;4949554;28;38677;-82
2023/12/07 08:13:08;;;;;;;154.70;32.30;;;2.10;99.90;;;;;;4937989;28;37553;-81
2023/12/07 08:15:35;;;;;;;116.70;30.43;;;2.10;99.90;;;;;;4953352;28;38543;-82
2023/12/07 08:18:05;;;;;;;199.50;36.97;;;2.10;99.90;;;;;;4927252;28;37699;-81
2023/12/07 08:20:31;;;;;;;222.77;37.47;;;2.10;99.90;;;;;;4954734;28;48787;-81
2023/12/07 08:22:57;;;;;;;139.20;35.20;;;2.20;99.90;;;;;;4952977;28;38364;-79
2023/12/07 08:25:23;;;;;;;163.23;35.43;;;2.10;99.90;;;;;;4931772;28;39178;-79
2023/12/07 08:27:49;;;;;;;106.23;33.40;;;2.20;99.90;;;;;;4927751;28;36569;-79
2023/12/07 08:30:16;;;;;;;116.73;33.47;;;2.20;99.90;;;;;;4950501;28;40661;-80
2023/12/07 08:32:42;;;;;;;158.40;36.97;;;2.30;99.90;;;;;;4927090;28;37471;-80
2023/12/07 08:35:08;;;;;;;132.20;34.97;;;2.30;99.90;;;;;;4962569;28;38099;-80
2023/12/07 08:37:37;;;;;;;156.83;37.30;;;2.30;99.90;;;;;;4938100;28;37430;-80
2023/12/07 08:40:04;;;;;;;132.77;36.33;;;2.30;99.90;;;;;;4933313;28;37652;-79
2023/12/07 08:42:31;;;;;;;107.60;34.70;;;2.30;99.90;;;;;;4932958;28;47209;-80
2023/12/07 08:44:58;;;;;;;164.67;40.87;;;2.30;99.90;;;;;;4946102;28;39613;-80
2023/12/07 08:47:27;;;;;;;144.07;40.93;;;2.40;99.90;;;;;;4920449;28;37406;-80
2023/12/07 08:49:53;;;;;;;153.60;37.87;;;2.40;99.90;;;;;;4949957;28;39458;-80
2023/12/07 08:52:19;;;;;;;142.13;39.67;;;2.40;99.90;;;;;;4937750;28;36716;-79
2023/12/07 08:54:46;;;;;;;150.60;40.93;;;2.40;99.90;;;;;;4933006;28;38515;-80
2023/12/07 08:57:12;;;;;;;128.83;39.40;;;2.40;99.90;;;;;;4950137;28;36321;-80
2023/12/07 08:59:39;;;;;;;121.60;39.73;;;2.40;99.90;;;;;;4974030;28;38753;-81
2023/12/07 09:02:05;;;;;;;131.43;40.10;;;2.50;99.90;;;;;;4951767;28;39153;-79
2023/12/07 09:04:31;;;;;;;138.67;42.43;;;2.50;99.90;;;;;;4934990;28;38631;-79
2023/12/07 09:06:57;;;;;;;140.80;41.87;;;2.50;99.90;;;;;;4935604;28;37100;-79
2023/12/07 09:09:25;;;;;;;135.13;40.43;;;2.50;99.90;;;;;;4956863;28;38675;-79
2023/12/07 09:11:51;;;;;;;145.53;43.03;;;2.50;99.90;;;;;;4936080;28;38972;-81
2023/12/07 09:14:17;;;;;;;150.90;45.30;;;2.60;99.90;;;;;;4962552;28;38687;-82
2023/12/07 09:16:44;;;;;;;139.37;44.27;;;2.60;99.90;;;;;;4940695;28;36117;-80
2023/12/07 09:19:12;;;;;;;160.83;45.63;;;2.70;99.90;;;;;;4938062;28;38317;-80
2023/12/07 09:21:40;;;;;;;130.97;44.47;;;2.70;99.90;;;;;;4938673;28;39991;-80
2023/12/07 09:24:07;;;;;;;120.20;40.53;;;2.60;99.90;;;;;;4941077;28;39674;-80
2023/12/07 09:26:36;;;;;;;111.07;42.10;;;2.70;99.90;;;;;;4937114;28;36935;-80
2023/12/07 09:29:03;;;;;;;92.70;36.07;;;2.70;99.90;;;;;;4938030;28;37716;-79
2023/12/07 09:31:29;;;;;;;105.27;38.57;;;2.60;99.90;;;;;;4938038;28;39418;-78
2023/12/07 09:33:56;;;;;;;95.10;35.77;;;2.70;99.90;;;;;;4940421;28;37559;-79
2023/12/07 09:36:23;;;;;;;94.03;35.27;;;2.70;99.90;;;;;;4954966;28;37621;-79
2023/12/07 09:38:50;;;;;;;95.77;36.90;;;2.80;99.90;;;;;;4934104;28;39775;-79
2023/12/07 09:41:16;;;;;;;91.83;34.83;;;2.70;99.90;;;;;;4927260;28;38784;-79
2023/12/07 09:43:43;;;;;;;97.03;37.60;;;2.80;99.90;;;;;;4936745;28;38257;-79
2023/12/07 09:46:10;;;;;;;84.20;36.20;;;2.80;99.90;;;;;;4940588;28;37538;-79
2023/12/07 09:48:42;;;;;;;92.60;36.23;;;2.80;99.90;;;;;;4940524;28;39806;-79
2023/12/07 09:51:09;;;;;;;75.33;34.93;;;2.90;99.90;;;;;;4934040;28;38668;-78
2023/12/07 09:53:36;;;;;;;75.60;34.10;;;2.90;99.90;;;;;;4938716;28;38298;-78
2023/12/07 09:56:03;;;;;;;81.47;34.10;;;2.90;99.90;;;;;;4940139;28;36243;-78
2023/12/07 09:58:29;;;;;;;67.93;31.90;;;2.90;99.90;;;;;;4947677;28;38016;-79
2023/12/07 10:00:55;;;;;;;62.73;29.90;;;2.90;99.90;;;;;;4954752;28;38950;-79
2023/12/07 10:03:22;;;;;;;78.80;33.87;;;2.90;99.90;;;;;;4954788;28;39187;-78
2023/12/07 10:05:59;;;;;;;72.67;32.87;;;3.00;99.90;;;;;;4958473;28;37939;-78
2023/12/07 10:08:36;;;;;;;61.40;30.57;;;3.10;99.90;;;;;;4937486;28;37766;-78
2023/12/07 10:11:07;;;;;;;56.17;30.43;;;3.20;99.90;;;;;;4935190;28;38026;-78
2023/12/07 10:13:35;;;;;;;60.53;30.47;;;3.20;99.90;;;;;;4951174;28;38951;-79
2023/12/07 10:16:12;;;;;;;69.57;34.10;;;3.30;99.90;;;;;;4924915;28;36803;-80
2023/12/07 10:18:40;;;;;;;73.03;33.63;;;3.30;99.90;;;;;;4931727;28;48111;-78
2023/12/07 10:21:08;;;;;;;76.17;35.43;;;3.30;99.90;;;;;;4953845;28;37822;-78
2023/12/07 10:23:34;;;;;;;61.60;33.00;;;3.40;99.90;;;;;;4947412;28;39321;-78
2023/12/07 10:26:01;;;;;;;60.50;33.70;;;3.40;99.90;;;;;;4938625;28;37033;-79
2023/12/07 10:28:27;;;;;;;59.47;32.37;;;3.40;99.90;;;;;;4944406;28;39574;-78
2023/12/07 10:30:54;;;;;;;58.80;31.30;;;3.40;99.90;;;;;;4954722;28;38681;-79
2023/12/07 10:33:20;;;;;;;58.13;30.37;;;3.40;99.90;;;;;;4951974;28;39242;-78
2023/12/07 10:35:48;;;;;;;57.30;31.47;;;3.40;99.90;;;;;;4940811;28;36688;-78
2023/12/07 10:38:14;;;;;;;48.37;29.27;;;3.50;99.90;;;;;;4928004;28;37690;-78
2023/12/07 10:40:41;;;;;;;58.77;32.80;;;3.50;99.90;;;;;;4933818;28;37967;-77
2023/12/07 10:43:08;;;;;;;65.07;34.37;;;3.60;99.90;;;;;;4933736;28;37838;-78
2023/12/07 10:45:37;;;;;;;60.77;33.97;;;3.60;99.90;;;;;;4933470;28;36138;-78
2023/12/07 10:48:10;;;;;;;65.17;33.03;;;3.70;99.90;;;;;;4944957;28;38516;-79
2023/12/07 10:50:46;;;;;;;60.67;34.27;;;3.70;99.90;;;;;;4937941;28;40160;-80
2023/12/07 10:53:32;;;;;;;62.33;34.87;;;3.60;99.90;;;;;;4927487;28;40550;-77
2023/12/07 10:56:04;;;;;;;65.37;33.77;;;3.60;99.90;;;;;;4967374;28;37691;-78
2023/12/07 10:58:35;;;;;;;70.07;34.60;;;3.60;99.90;;;;;;4953282;28;48682;-77
2023/12/07 11:01:02;;;;;;;59.80;33.93;;;3.50;99.90;;;;;;4936796;28;38067;-77
2023/12/07 11:03:29;;;;;;;62.57;31.67;;;3.50;99.90;;;;;;4955235;28;39723;-79
2023/12/07 11:05:55;;;;;;;54.90;30.97;;;3.50;99.90;;;;;;4932632;28;38627;-77
2023/12/07 11:08:47;;;;;;;59.03;30.17;;;3.50;99.90;;;;;;4948862;28;38560;-78
2023/12/07 11:11:28;;;;;;;47.80;29.23;;;3.50;99.90;;;;;;4928572;28;38305;-78
2023/12/07 11:14:11;;;;;;;56.53;29.53;;;3.50;99.90;;;;;;4953720;28;38410;-78
2023/12/07 11:16:41;;;;;;;55.17;30.05;;;3.50;99.90;;;;;;4968854;28;47366;-78
2023/12/07 11:19:29;;;;;;;52.13;29.73;;;3.50;99.90;;;;;;4933419;28;37507;-79
2023/12/07 11:21:59;;;;;;;59.03;30.50;;;3.60;99.90;;;;;;4985890;28;37526;-78
2023/12/07 11:24:26;;;;;;;47.87;29.03;;;3.60;99.90;;;;;;4942028;28;36894;-78
2023/12/07 11:26:53;;;;;;;49.13;29.70;;;3.60;99.90;;;;;;4952553;28;36163;-78
2023/12/07 11:29:24;;;;;;;44.53;26.37;;;3.70;99.90;;;;;;4938681;28;40272;-78
2023/12/07 11:31:51;;;;;;;39.83;24.93;;;3.80;99.90;;;;;;4941640;28;38089;-78
2023/12/07 11:34:37;;;;;;;40.17;26.17;;;3.90;99.90;;;;;;4969981;28;39646;-78
2023/12/07 11:37:04;;;;;;;43.80;26.00;;;3.90;99.90;;;;;;4937963;28;37337;-78
2023/12/07 11:39:41;;;;;;;45.47;25.70;;;4.10;99.90;;;;;;4934438;28;37785;-78
2023/12/07 11:42:11;;;;;;;43.23;26.10;;;4.10;99.90;;;;;;4932905;28;38991;-78
2023/12/07 11:44:38;;;;;;;43.77;24.20;;;4.20;99.90;;;;;;4935315;28;38670;-78
2023/12/07 11:47:05;;;;;;;37.53;24.50;;;4.30;99.90;;;;;;4934733;28;38882;-79
2023/12/07 11:49:32;;;;;;;43.13;24.30;;;4.40;99.90;;;;;;4935653;28;37547;-79
2023/12/07 11:51:59;;;;;;;39.60;23.83;;;4.50;99.90;;;;;;4944233;28;38673;-79
2023/12/07 11:54:26;;;;;;;36.97;22.70;;;4.50;99.90;;;;;;4930445;28;38280;-79
2023/12/07 11:56:57;;;;;;;40.37;24.07;;;4.50;99.90;;;;;;4932169;28;37302;-79
2023/12/07 11:59:27;;;;;;;36.03;22.87;;;4.60;99.90;;;;;;4955874;28;38276;-78
2023/12/07 12:01:53;;;;;;;39.07;24.83;;;4.70;99.90;;;;;;4936025;28;38178;-79
2023/12/07 12:04:21;;;;;;;39.03;23.47;;;4.60;99.90;;;;;;4932933;28;37610;-79
2023/12/07 12:06:51;;;;;;;44.20;24.40;;;4.60;99.90;;;;;;4952880;28;37834;-79
2023/12/07 12:09:17;;;;;;;38.63;22.67;;;4.50;99.90;;;;;;4944305;28;38279;-78
2023/12/07 12:11:47;;;;;;;37.53;24.50;;;4.60;99.90;;;;;;4950391;28;40360;-79
2023/12/07 12:14:17;;;;;;;43.20;24.67;;;4.60;99.90;;;;;;4945500;28;39149;-79
2023/12/07 12:16:44;;;;;;;37.20;23.33;;;4.60;99.90;;;;;;4945602;28;38807;-79
2023/12/07 12:19:11;;;;;;;38.33;24.33;;;4.60;99.90;;;;;;4928570;28;37488;-79
2023/12/07 12:21:43;;;;;;;50.23;24.97;;;4.70;99.90;;;;;;4944799;28;38248;-79
2023/12/07 12:24:13;;;;;;;44.60;25.30;;;4.60;99.90;;;;;;4945592;28;37676;-79
2023/12/07 12:26:42;;;;;;;34.17;22.37;;;4.70;99.90;;;;;;4952153;28;37703;-79
2023/12/07 12:29:09;;;;;;;39.47;24.10;;;4.60;99.90;;;;;;4931085;28;37724;-78
2023/12/07 12:31:38;;;;;;;35.27;23.70;;;4.70;99.90;;;;;;4959742;28;39057;-80
2023/12/07 12:34:12;;;;;;;41.63;25.03;;;4.80;99.90;;;;;;4930915;28;38156;-79
2023/12/07 12:36:38;;;;;;;38.63;24.17;;;4.80;99.90;;;;;;4947741;28;37400;-79
2023/12/07 12:39:08;;;;;;;42.63;24.63;;;4.80;99.90;;;;;;4939407;28;38446;-79
2023/12/07 12:41:34;;;;;;;38.93;24.83;;;4.80;99.90;;;;;;4924355;28;38100;-79
2023/12/07 12:44:00;;;;;;;44.27;25.33;;;4.80;99.90;;;;;;4948614;28;38971;-79
2023/12/07 12:46:27;;;;;;;37.67;24.17;;;4.80;99.90;;;;;;4958643;28;36489;-79
2023/12/07 12:48:58;;;;;;;37.63;24.30;;;4.80;99.90;;;;;;4932349;28;38873;-79
2023/12/07 12:51:32;;;;;;;35.10;24.30;;;4.90;99.90;;;;;;4927940;28;37717;-80
2023/12/07 12:54:00;;;;;;;38.43;24.43;;;4.90;99.90;;;;;;4947694;28;38933;-79
2023/12/07 12:56:28;;;;;;;38.10;24.37;;;5.00;99.90;;;;;;4950008;28;38275;-78
2023/12/07 12:58:57;;;;;;;37.10;23.53;;;5.00;99.90;;;;;;4940441;28;37531;-80
2023/12/07 13:01:23;;;;;;;40.93;24.57;;;5.00;99.90;;;;;;4936204;28;39136;-80
2023/12/07 13:03:49;;;;;;;35.47;23.50;;;5.00;99.90;;;;;;4937239;28;38178;-80
2023/12/07 13:06:17;;;;;;;42.73;25.87;;;5.00;99.90;;;;;;4952624;28;36146;-80
2023/12/07 13:08:48;;;;;;;36.87;24.43;;;5.10;99.90;;;;;;4941495;28;36275;-80
2023/12/07 13:11:18;;;;;;;37.37;24.20;;;5.00;99.90;;;;;;4950750;28;40134;-80
2023/12/07 13:13:47;;;;;;;35.17;23.23;;;5.10;99.90;;;;;;4963204;28;37732;-80
2023/12/07 13:16:14;;;;;;;36.53;23.03;;;5.00;99.90;;;;;;4929391;28;36713;-79
2023/12/07 13:18:41;;;;;;;35.73;22.77;;;5.10;99.90;;;;;;4942898;28;39187;-80
2023/12/07 13:21:09;;;;;;;34.70;23.93;;;5.10;99.90;;;;;;4926143;28;38113;-79
2023/12/07 13:23:36;;;;;;;39.37;23.20;;;5.10;99.90;;;;;;4962950;28;37427;-80
2023/12/07 13:26:03;;;;;;;30.20;21.73;;;5.10;99.90;;;;;;4930958;28;36390;-79
2023/12/07 13:28:29;;;;;;;34.67;22.93;;;5.10;99.90;;;;;;4946276;28;39055;-79
2023/12/07 13:30:55;;;;;;;31.17;21.90;;;5.10;99.90;;;;;;4926418;28;37708;-80
2023/12/07 13:33:22;;;;;;;34.70;21.60;;;5.10;99.90;;;;;;4931086;28;37447;-79
2023/12/07 13:35:49;;;;;;;29.73;20.40;;;5.20;99.90;;;;;;4927382;28;38185;-78
2023/12/07 13:38:19;;;;;;;36.33;22.70;;;5.10;99.90;;;;;;4941820;28;39204;-79
2023/12/07 13:40:46;;;;;;;32.17;20.53;;;5.20;99.90;;;;;;4934478;28;39101;-78
2023/12/07 13:43:13;;;;;;;31.17;20.93;;;5.10;99.90;;;;;;4930204;28;37309;-79
2023/12/07 13:45:39;;;;;;;30.73;20.17;;;5.10;99.90;;;;;;4935431;28;36589;-79
2023/12/07 13:48:05;;;;;;;30.33;21.23;;;5.10;99.90;;;;;;4949772;28;39057;-80
2023/12/07 13:50:31;;;;;;;32.20;20.50;;;5.10;99.90;;;;;;4952663;28;39037;-79
2023/12/07 13:52:57;;;;;;;30.03;20.23;;;5.10;99.90;;;;;;4932966;28;37373;-79
2023/12/07 13:55:24;;;;;;;33.87;21.67;;;5.10;99.90;;;;;;4957737;28;37741;-79
2023/12/07 13:57:52;;;;;;;30.27;18.90;;;5.10;99.90;;;;;;4932371;28;37944;-79
2023/12/07 14:00:19;;;;;;;27.47;19.80;;;5.10;99.90;;;;;;4947167;28;38158;-79
2023/12/07 14:02:46;;;;;;;27.80;18.33;;;5.10;99.90;;;;;;4930900;28;37329;-79
2023/12/07 14:05:12;;;;;;;29.10;19.13;;;5.00;99.90;;;;;;4949164;28;38422;-79
2023/12/07 14:07:38;;;;;;;26.93;18.97;;;5.00;99.90;;;;;;4947886;28;38594;-79